sensor_id;sensor_type;location;lat;lon;timestamp;pressure;altitude;pressure_sealevel;temperature;humidity
15489;BME280;7846;48.830;9.116;2023-02-02T00:00:51;98451.00;;;10.63;56.11
15489;BME280;7846;48.830;9.116;2023-02-02T00:03:17;98446.34;;;10.28;57.56
15489;BME280;7846;48.830;9.116;2023-02-02T00:05:50;98450.44;;;10.59;57.27
15489;BME280;7846;48.830;9.116;2023-02-02T00:08:17;98441.84;;;10.67;57.27
15489;BME280;7846;48.830;9.116;2023-02-02T00:10:43;98441.75;;;10.49;57.54
15489;BME280;7846;48.830;9.116;2023-02-02T00:13:09;98434.94;;;10.56;57.49
15489;BME280;7846;48.830;9.116;2023-02-02T00:15:36;98429.72;;;10.47;57.70
15489;BME280;7846;48.830;9.116;2023-02-02T00:18:01;98437.59;;;10.47;57.51
15489;BME280;7846;48.830;9.116;2023-02-02T00:20:27;98433.88;;;10.30;58.22
15489;BME280;7846;48.830;9.116;2023-02-02T00:22:53;98428.56;;;10.69;56.92
15489;BME280;7846;48.830;9.116;2023-02-02T00:25:18;98449.53;;;10.31;58.14
15489;BME280;7846;48.830;9.116;2023-02-02T00:27:45;98448.25;;;10.55;57.30
15489;BME280;7846;48.830;9.116;2023-02-02T00:30:11;98446.06;;;10.40;57.58
15489;BME280;7846;48.830;9.116;2023-02-02T00:32:37;98451.75;;;10.36;57.72
15489;BME280;7846;48.830;9.116;2023-02-02T00:35:03;98452.41;;;10.57;57.55
15489;BME280;7846;48.830;9.116;2023-02-02T00:37:28;98446.44;;;10.55;57.43
15489;BME280;7846;48.830;9.116;2023-02-02T00:39:55;98452.53;;;10.65;57.11
15489;BME280;7846;48.830;9.116;2023-02-02T00:42:21;98453.78;;;10.61;57.69
15489;BME280;7846;48.830;9.116;2023-02-02T00:44:47;98437.41;;;10.68;57.81
15489;BME280;7846;48.830;9.116;2023-02-02T00:47:31;98440.47;;;10.63;57.54
15489;BME280;7846;48.830;9.116;2023-02-02T00:49:57;98437.28;;;10.59;57.43
15489;BME280;7846;48.830;9.116;2023-02-02T00:52:23;98446.91;;;10.31;58.43
15489;BME280;7846;48.830;9.116;2023-02-02T00:54:48;98434.09;;;10.56;57.68
15489;BME280;7846;48.830;9.116;2023-02-02T00:57:14;98432.91;;;10.50;58.04
15489;BME280;7846;48.830;9.116;2023-02-02T00:59:40;98433.22;;;10.75;57.52
15489;BME280;7846;48.830;9.116;2023-02-02T01:02:05;98436.19;;;10.52;58.06
15489;BME280;7846;48.830;9.116;2023-02-02T01:04:31;98433.69;;;10.60;57.92
15489;BME280;7846;48.830;9.116;2023-02-02T01:06:56;98440.78;;;10.40;57.94
15489;BME280;7846;48.830;9.116;2023-02-02T01:09:22;98433.00;;;10.49;58.36
15489;BME280;7846;48.830;9.116;2023-02-02T01:11:47;98438.03;;;10.42;58.74
15489;BME280;7846;48.830;9.116;2023-02-02T01:14:13;98427.94;;;10.28;59.31
15489;BME280;7846;48.830;9.116;2023-02-02T01:16:39;98449.50;;;10.51;59.09
15489;BME280;7846;48.830;9.116;2023-02-02T01:19:05;98445.75;;;10.63;58.40
15489;BME280;7846;48.830;9.116;2023-02-02T01:21:31;98465.03;;;10.34;59.33
15489;BME280;7846;48.830;9.116;2023-02-02T01:23:57;98445.22;;;10.11;59.63
15489;BME280;7846;48.830;9.116;2023-02-02T01:26:24;98446.34;;;10.37;60.00
15489;BME280;7846;48.830;9.116;2023-02-02T01:28:50;98456.16;;;10.55;58.92
15489;BME280;7846;48.830;9.116;2023-02-02T01:31:17;98457.91;;;10.64;59.19
15489;BME280;7846;48.830;9.116;2023-02-02T01:33:44;98461.16;;;10.29;60.56
15489;BME280;7846;48.830;9.116;2023-02-02T01:36:13;98451.16;;;10.52;60.21
15489;BME280;7846;48.830;9.116;2023-02-02T01:38:39;98465.13;;;10.23;61.11
15489;BME280;7846;48.830;9.116;2023-02-02T01:41:05;98454.25;;;10.28;61.23
15489;BME280;7846;48.830;9.116;2023-02-02T01:46:09;98456.88;;;10.28;61.83
15489;BME280;7846;48.830;9.116;2023-02-02T01:48:36;98458.25;;;10.32;61.03
15489;BME280;7846;48.830;9.116;2023-02-02T01:51:05;98449.81;;;10.09;61.94
15489;BME280;7846;48.830;9.116;2023-02-02T01:53:32;98460.88;;;10.03;61.90
15489;BME280;7846;48.830;9.116;2023-02-02T01:55:58;98461.69;;;10.52;61.41
15489;BME280;7846;48.830;9.116;2023-02-02T01:58:28;98452.38;;;10.67;61.14
15489;BME280;7846;48.830;9.116;2023-02-02T02:00:54;98453.00;;;10.32;61.25
15489;BME280;7846;48.830;9.116;2023-02-02T02:03:23;98459.09;;;10.32;61.80
15489;BME280;7846;48.830;9.116;2023-02-02T02:05:57;98457.28;;;10.43;61.60
15489;BME280;7846;48.830;9.116;2023-02-02T02:08:26;98458.66;;;10.37;61.11
15489;BME280;7846;48.830;9.116;2023-02-02T02:10:53;98440.50;;;10.53;61.23
15489;BME280;7846;48.830;9.116;2023-02-02T02:13:21;98444.09;;;10.23;62.12
15489;BME280;7846;48.830;9.116;2023-02-02T02:16:02;98437.84;;;10.63;61.53
15489;BME280;7846;48.830;9.116;2023-02-02T02:22:02;98446.31;;;10.08;62.30
15489;BME280;7846;48.830;9.116;2023-02-02T02:24:57;98456.47;;;10.32;61.27
15489;BME280;7846;48.830;9.116;2023-02-02T02:33:58;98465.44;;;10.30;62.43
15489;BME280;7846;48.830;9.116;2023-02-02T02:36:48;98452.09;;;10.60;61.42
15489;BME280;7846;48.830;9.116;2023-02-02T02:39:31;98448.84;;;10.39;62.14
15489;BME280;7846;48.830;9.116;2023-02-02T02:42:02;98438.03;;;10.32;62.59
15489;BME280;7846;48.830;9.116;2023-02-02T02:44:30;98445.66;;;10.26;62.66
15489;BME280;7846;48.830;9.116;2023-02-02T02:46:56;98453.81;;;10.42;61.94
15489;BME280;7846;48.830;9.116;2023-02-02T02:49:22;98443.31;;;10.42;61.56
15489;BME280;7846;48.830;9.116;2023-02-02T02:54:24;98447.16;;;10.57;62.01
15489;BME280;7846;48.830;9.116;2023-02-02T03:02:17;98453.72;;;10.90;61.37
15489;BME280;7846;48.830;9.116;2023-02-02T03:07:41;98456.38;;;10.71;61.81
15489;BME280;7846;48.830;9.116;2023-02-02T03:10:08;98454.28;;;10.75;61.53
15489;BME280;7846;48.830;9.116;2023-02-02T03:12:43;98460.44;;;10.65;61.49
15489;BME280;7846;48.830;9.116;2023-02-02T03:15:08;98454.63;;;10.62;61.37
15489;BME280;7846;48.830;9.116;2023-02-02T03:17:34;98467.09;;;10.50;61.94
15489;BME280;7846;48.830;9.116;2023-02-02T03:19:59;98461.81;;;10.60;61.31
15489;BME280;7846;48.830;9.116;2023-02-02T03:22:25;98449.00;;;10.84;60.60
15489;BME280;7846;48.830;9.116;2023-02-02T03:24:51;98459.06;;;10.61;60.98
15489;BME280;7846;48.830;9.116;2023-02-02T03:27:17;98448.41;;;10.44;61.54
15489;BME280;7846;48.830;9.116;2023-02-02T03:29:43;98443.16;;;10.44;61.17
15489;BME280;7846;48.830;9.116;2023-02-02T03:32:08;98453.41;;;10.47;61.72
15489;BME280;7846;48.830;9.116;2023-02-02T03:34:33;98445.84;;;10.71;61.09
15489;BME280;7846;48.830;9.116;2023-02-02T03:36:59;98457.13;;;10.44;61.41
15489;BME280;7846;48.830;9.116;2023-02-02T03:39:24;98464.88;;;10.07;62.42
15489;BME280;7846;48.830;9.116;2023-02-02T03:41:50;98436.50;;;10.20;62.65
15489;BME280;7846;48.830;9.116;2023-02-02T03:44:16;98444.09;;;10.52;61.68
15489;BME280;7846;48.830;9.116;2023-02-02T03:46:41;98453.81;;;10.13;62.36
15489;BME280;7846;48.830;9.116;2023-02-02T03:49:06;98441.56;;;10.60;61.85
15489;BME280;7846;48.830;9.116;2023-02-02T03:51:33;98441.63;;;10.41;61.98
15489;BME280;7846;48.830;9.116;2023-02-02T03:53:58;98468.31;;;10.65;61.66
15489;BME280;7846;48.830;9.116;2023-02-02T03:56:23;98452.28;;;10.39;61.27
15489;BME280;7846;48.830;9.116;2023-02-02T03:58:49;98457.69;;;10.57;61.67
15489;BME280;7846;48.830;9.116;2023-02-02T04:01:15;98445.38;;;10.29;61.90
15489;BME280;7846;48.830;9.116;2023-02-02T04:03:41;98453.25;;;10.48;61.60
15489;BME280;7846;48.830;9.116;2023-02-02T04:06:06;98464.03;;;10.55;61.68
15489;BME280;7846;48.830;9.116;2023-02-02T04:08:32;98487.47;;;10.29;62.18
15489;BME280;7846;48.830;9.116;2023-02-02T04:10:58;98463.44;;;10.71;61.63
15489;BME280;7846;48.830;9.116;2023-02-02T04:13:23;98459.31;;;10.68;61.78
15489;BME280;7846;48.830;9.116;2023-02-02T04:15:58;98475.34;;;10.84;61.78
15489;BME280;7846;48.830;9.116;2023-02-02T04:18:23;98473.47;;;10.57;61.59
15489;BME280;7846;48.830;9.116;2023-02-02T04:20:49;98473.44;;;10.18;62.51
15489;BME280;7846;48.830;9.116;2023-02-02T04:23:14;98466.53;;;10.56;62.63
15489;BME280;7846;48.830;9.116;2023-02-02T04:25:48;98468.22;;;10.57;62.46
15489;BME280;7846;48.830;9.116;2023-02-02T04:28:13;98488.25;;;10.78;61.69
15489;BME280;7846;48.830;9.116;2023-02-02T04:30:38;98493.72;;;10.57;61.44
15489;BME280;7846;48.830;9.116;2023-02-02T04:33:04;98491.50;;;10.43;62.09
15489;BME280;7846;48.830;9.116;2023-02-02T04:35:30;98487.34;;;10.50;61.63
15489;BME280;7846;48.830;9.116;2023-02-02T04:37:56;98486.69;;;10.95;60.60
15489;BME280;7846;48.830;9.116;2023-02-02T04:40:22;98488.13;;;10.60;61.51
15489;BME280;7846;48.830;9.116;2023-02-02T04:42:47;98487.47;;;10.29;61.85
15489;BME280;7846;48.830;9.116;2023-02-02T04:45:12;98493.09;;;10.82;60.75
15489;BME280;7846;48.830;9.116;2023-02-02T04:47:38;98505.16;;;10.75;61.13
15489;BME280;7846;48.830;9.116;2023-02-02T04:50:03;98500.19;;;10.72;61.42
15489;BME280;7846;48.830;9.116;2023-02-02T04:52:29;98507.81;;;10.56;61.66
15489;BME280;7846;48.830;9.116;2023-02-02T04:54:54;98503.69;;;10.53;61.58
15489;BME280;7846;48.830;9.116;2023-02-02T04:57:20;98520.72;;;10.30;61.91
15489;BME280;7846;48.830;9.116;2023-02-02T04:59:45;98508.09;;;10.53;61.58
15489;BME280;7846;48.830;9.116;2023-02-02T05:02:10;98515.59;;;10.28;62.41
15489;BME280;7846;48.830;9.116;2023-02-02T05:04:37;98511.56;;;10.44;61.88
15489;BME280;7846;48.830;9.116;2023-02-02T05:07:03;98507.47;;;10.98;60.37
15489;BME280;7846;48.830;9.116;2023-02-02T05:09:28;98504.59;;;10.23;62.26
15489;BME280;7846;48.830;9.116;2023-02-02T05:11:55;98527.50;;;10.42;61.89
15489;BME280;7846;48.830;9.116;2023-02-02T05:14:20;98525.56;;;10.54;61.58
15489;BME280;7846;48.830;9.116;2023-02-02T05:16:45;98519.75;;;10.50;61.86
15489;BME280;7846;48.830;9.116;2023-02-02T05:19:11;98514.75;;;10.57;61.71
15489;BME280;7846;48.830;9.116;2023-02-02T05:21:36;98516.53;;;10.66;61.23
15489;BME280;7846;48.830;9.116;2023-02-02T05:24:02;98539.81;;;10.71;61.09
15489;BME280;7846;48.830;9.116;2023-02-02T05:26:28;98526.50;;;10.53;61.96
15489;BME280;7846;48.830;9.116;2023-02-02T05:28:54;98528.31;;;10.52;62.10
15489;BME280;7846;48.830;9.116;2023-02-02T05:31:20;98526.78;;;10.30;62.45
15489;BME280;7846;48.830;9.116;2023-02-02T05:33:46;98557.84;;;10.36;62.08
15489;BME280;7846;48.830;9.116;2023-02-02T05:36:11;98519.88;;;10.58;61.97
15489;BME280;7846;48.830;9.116;2023-02-02T05:38:37;98528.59;;;10.30;62.86
15489;BME280;7846;48.830;9.116;2023-02-02T05:41:03;98529.56;;;10.58;61.58
15489;BME280;7846;48.830;9.116;2023-02-02T05:43:30;98524.47;;;10.47;62.06
15489;BME280;7846;48.830;9.116;2023-02-02T05:45:56;98520.28;;;10.63;61.50
15489;BME280;7846;48.830;9.116;2023-02-02T05:48:23;98501.00;;;10.05;62.75
15489;BME280;7846;48.830;9.116;2023-02-02T05:51:28;98528.19;;;10.54;62.29
15489;BME280;7846;48.830;9.116;2023-02-02T05:53:52;98526.94;;;10.29;62.42
15489;BME280;7846;48.830;9.116;2023-02-02T05:56:19;98544.38;;;10.49;61.82
15489;BME280;7846;48.830;9.116;2023-02-02T05:58:44;98512.94;;;10.48;61.90
15489;BME280;7846;48.830;9.116;2023-02-02T06:01:12;98503.69;;;10.53;61.91
15489;BME280;7846;48.830;9.116;2023-02-02T06:03:38;98520.84;;;10.48;62.10
15489;BME280;7846;48.830;9.116;2023-02-02T06:06:04;98516.41;;;10.58;62.24
15489;BME280;7846;48.830;9.116;2023-02-02T06:08:29;98536.38;;;10.31;62.61
15489;BME280;7846;48.830;9.116;2023-02-02T06:10:55;98514.22;;;10.44;62.52
15489;BME280;7846;48.830;9.116;2023-02-02T06:13:20;98525.81;;;10.60;62.29
15489;BME280;7846;48.830;9.116;2023-02-02T06:15:46;98527.38;;;10.53;61.95
15489;BME280;7846;48.830;9.116;2023-02-02T06:18:11;98545.19;;;10.79;61.94
15489;BME280;7846;48.830;9.116;2023-02-02T06:20:37;98554.06;;;10.78;61.28
15489;BME280;7846;48.830;9.116;2023-02-02T06:23:03;98537.75;;;10.64;61.73
15489;BME280;7846;48.830;9.116;2023-02-02T06:25:29;98533.31;;;10.65;61.88
15489;BME280;7846;48.830;9.116;2023-02-02T06:27:56;98562.97;;;10.86;61.77
15489;BME280;7846;48.830;9.116;2023-02-02T06:30:21;98550.38;;;10.61;62.11
15489;BME280;7846;48.830;9.116;2023-02-02T06:32:46;98556.19;;;10.64;62.12
15489;BME280;7846;48.830;9.116;2023-02-02T06:35:13;98554.78;;;10.60;61.67
15489;BME280;7846;48.830;9.116;2023-02-02T06:37:38;98564.09;;;10.64;61.73
15489;BME280;7846;48.830;9.116;2023-02-02T06:40:06;98572.25;;;10.42;62.51
15489;BME280;7846;48.830;9.116;2023-02-02T06:42:32;98556.31;;;10.73;61.96
15489;BME280;7846;48.830;9.116;2023-02-02T06:44:58;98587.06;;;10.53;61.85
15489;BME280;7846;48.830;9.116;2023-02-02T06:47:23;98549.13;;;10.36;62.48
15489;BME280;7846;48.830;9.116;2023-02-02T06:49:48;98560.59;;;10.83;61.50
15489;BME280;7846;48.830;9.116;2023-02-02T06:52:14;98574.06;;;10.61;61.71
15489;BME280;7846;48.830;9.116;2023-02-02T06:54:40;98568.63;;;10.53;61.81
15489;BME280;7846;48.830;9.116;2023-02-02T06:57:06;98562.97;;;10.86;61.06
15489;BME280;7846;48.830;9.116;2023-02-02T06:59:33;98584.97;;;10.37;62.28
15489;BME280;7846;48.830;9.116;2023-02-02T07:02:00;98573.19;;;10.41;62.64
15489;BME280;7846;48.830;9.116;2023-02-02T07:04:26;98590.91;;;10.29;62.09
15489;BME280;7846;48.830;9.116;2023-02-02T07:06:52;98564.91;;;10.55;62.23
15489;BME280;7846;48.830;9.116;2023-02-02T07:09:19;98567.94;;;10.70;62.20
15489;BME280;7846;48.830;9.116;2023-02-02T07:11:45;98569.72;;;10.89;61.51
15489;BME280;7846;48.830;9.116;2023-02-02T07:14:10;98579.47;;;10.50;62.31
15489;BME280;7846;48.830;9.116;2023-02-02T07:16:37;98562.56;;;10.72;61.76
15489;BME280;7846;48.830;9.116;2023-02-02T07:19:03;98576.81;;;10.40;62.52
15489;BME280;7846;48.830;9.116;2023-02-02T07:21:28;98572.94;;;10.73;61.66
15489;BME280;7846;48.830;9.116;2023-02-02T07:24:01;98563.25;;;10.54;62.17
15489;BME280;7846;48.830;9.116;2023-02-02T07:26:26;98580.28;;;10.40;61.72
15489;BME280;7846;48.830;9.116;2023-02-02T07:28:52;98574.88;;;10.71;61.73
15489;BME280;7846;48.830;9.116;2023-02-02T07:31:23;98572.38;;;10.70;61.81
15489;BME280;7846;48.830;9.116;2023-02-02T07:33:49;98585.41;;;10.71;61.48
15489;BME280;7846;48.830;9.116;2023-02-02T07:36:17;98596.09;;;10.79;61.66
15489;BME280;7846;48.830;9.116;2023-02-02T07:38:44;98594.69;;;10.95;61.31
15489;BME280;7846;48.830;9.116;2023-02-02T07:41:10;98585.38;;;11.00;60.74
15489;BME280;7846;48.830;9.116;2023-02-02T07:43:36;98587.75;;;10.74;61.20
15489;BME280;7846;48.830;9.116;2023-02-02T07:46:02;98586.91;;;11.03;61.14
15489;BME280;7846;48.830;9.116;2023-02-02T07:48:31;98591.06;;;11.05;61.28
15489;BME280;7846;48.830;9.116;2023-02-02T07:51:00;98587.31;;;11.08;60.65
15489;BME280;7846;48.830;9.116;2023-02-02T07:53:27;98577.50;;;10.81;60.85
15489;BME280;7846;48.830;9.116;2023-02-02T07:55:53;98573.50;;;10.48;61.06
15489;BME280;7846;48.830;9.116;2023-02-02T07:58:18;98566.41;;;10.77;61.13
15489;BME280;7846;48.830;9.116;2023-02-02T08:00:43;98563.06;;;10.75;61.04
15489;BME280;7846;48.830;9.116;2023-02-02T08:03:12;98572.78;;;10.84;61.06
15489;BME280;7846;48.830;9.116;2023-02-02T08:05:38;98561.53;;;11.02;60.21
15489;BME280;7846;48.830;9.116;2023-02-02T08:08:03;98560.31;;;10.77;61.08
15489;BME280;7846;48.830;9.116;2023-02-02T08:10:29;98566.09;;;11.00;60.47
15489;BME280;7846;48.830;9.116;2023-02-02T08:12:54;98563.94;;;11.42;59.43
15489;BME280;7846;48.830;9.116;2023-02-02T08:15:20;98570.41;;;11.48;59.18
15489;BME280;7846;48.830;9.116;2023-02-02T08:17:45;98579.69;;;11.61;58.14
15489;BME280;7846;48.830;9.116;2023-02-02T08:20:14;98585.84;;;11.43;58.76
15489;BME280;7846;48.830;9.116;2023-02-02T08:22:39;98602.00;;;11.20;59.00
15489;BME280;7846;48.830;9.116;2023-02-02T08:25:05;98584.72;;;11.45;58.81
15489;BME280;7846;48.830;9.116;2023-02-02T08:27:30;98596.94;;;11.46;59.08
15489;BME280;7846;48.830;9.116;2023-02-02T08:29:55;98609.25;;;11.46;59.21
15489;BME280;7846;48.830;9.116;2023-02-02T08:32:21;98626.44;;;11.12;59.49
15489;BME280;7846;48.830;9.116;2023-02-02T08:34:49;98628.34;;;11.67;58.95
15489;BME280;7846;48.830;9.116;2023-02-02T08:37:18;98629.69;;;11.44;58.55
15489;BME280;7846;48.830;9.116;2023-02-02T08:39:44;98628.72;;;11.82;57.75
15489;BME280;7846;48.830;9.116;2023-02-02T08:42:09;98629.44;;;11.84;58.34
15489;BME280;7846;48.830;9.116;2023-02-02T08:44:35;98653.56;;;11.89;58.04
15489;BME280;7846;48.830;9.116;2023-02-02T08:47:00;98647.06;;;11.74;57.47
15489;BME280;7846;48.830;9.116;2023-02-02T08:49:25;98656.97;;;11.72;58.24
15489;BME280;7846;48.830;9.116;2023-02-02T08:51:51;98655.09;;;11.82;57.99
15489;BME280;7846;48.830;9.116;2023-02-02T08:54:17;98653.06;;;11.66;57.56
15489;BME280;7846;48.830;9.116;2023-02-02T08:56:43;98664.41;;;11.86;57.36
15489;BME280;7846;48.830;9.116;2023-02-02T08:59:08;98669.00;;;11.74;57.70
15489;BME280;7846;48.830;9.116;2023-02-02T09:01:35;98661.19;;;11.35;59.03
15489;BME280;7846;48.830;9.116;2023-02-02T09:04:03;98678.13;;;11.23;60.06
15489;BME280;7846;48.830;9.116;2023-02-02T09:06:36;98662.75;;;11.09;60.23
15489;BME280;7846;48.830;9.116;2023-02-02T09:09:04;98657.47;;;10.99;61.06
15489;BME280;7846;48.830;9.116;2023-02-02T09:11:30;98650.53;;;11.08;60.38
15489;BME280;7846;48.830;9.116;2023-02-02T09:13:57;98667.84;;;11.30;61.01
15489;BME280;7846;48.830;9.116;2023-02-02T09:16:24;98637.31;;;11.47;60.41
15489;BME280;7846;48.830;9.116;2023-02-02T09:18:50;98658.25;;;11.48;60.23
15489;BME280;7846;48.830;9.116;2023-02-02T09:21:16;98663.94;;;11.53;59.79
15489;BME280;7846;48.830;9.116;2023-02-02T09:23:43;98662.97;;;11.45;60.45
15489;BME280;7846;48.830;9.116;2023-02-02T09:26:23;98666.16;;;11.58;60.47
15489;BME280;7846;48.830;9.116;2023-02-02T09:28:51;98661.47;;;11.32;60.08
15489;BME280;7846;48.830;9.116;2023-02-02T09:31:17;98674.50;;;11.44;60.11
15489;BME280;7846;48.830;9.116;2023-02-02T09:33:43;98659.06;;;11.49;59.63
15489;BME280;7846;48.830;9.116;2023-02-02T09:36:20;98681.69;;;11.61;60.05
15489;BME280;7846;48.830;9.116;2023-02-02T09:38:46;98674.78;;;11.41;60.72
15489;BME280;7846;48.830;9.116;2023-02-02T09:44:27;98694.63;;;11.25;61.05
15489;BME280;7846;48.830;9.116;2023-02-02T09:47:10;98682.56;;;11.32;61.49
15489;BME280;7846;48.830;9.116;2023-02-02T09:50:16;98673.97;;;11.21;61.98
15489;BME280;7846;48.830;9.116;2023-02-02T09:57:50;98699.34;;;11.31;61.79
15489;BME280;7846;48.830;9.116;2023-02-02T10:00:28;98723.75;;;11.04;62.71
15489;BME280;7846;48.830;9.116;2023-02-02T10:02:59;98699.88;;;11.45;61.66
15489;BME280;7846;48.830;9.116;2023-02-02T10:05:36;98714.31;;;11.11;61.98
15489;BME280;7846;48.830;9.116;2023-02-02T10:08:06;98683.94;;;11.36;61.80
15489;BME280;7846;48.830;9.116;2023-02-02T10:10:36;98705.31;;;11.33;61.57
15489;BME280;7846;48.830;9.116;2023-02-02T10:13:12;98695.16;;;11.58;61.16
15489;BME280;7846;48.830;9.116;2023-02-02T10:18:36;98706.69;;;11.37;60.70
15489;BME280;7846;48.830;9.116;2023-02-02T10:21:11;98700.75;;;11.82;60.11
15489;BME280;7846;48.830;9.116;2023-02-02T10:23:38;98699.31;;;11.51;59.81
15489;BME280;7846;48.830;9.116;2023-02-02T10:26:28;98698.63;;;11.58;59.95
15489;BME280;7846;48.830;9.116;2023-02-02T10:32:11;98715.91;;;11.80;59.23
15489;BME280;7846;48.830;9.116;2023-02-02T10:34:58;98702.44;;;11.93;60.26
15489;BME280;7846;48.830;9.116;2023-02-02T10:37:36;98696.63;;;11.80;60.67
15489;BME280;7846;48.830;9.116;2023-02-02T10:46:00;98715.97;;;11.61;60.89
15489;BME280;7846;48.830;9.116;2023-02-02T10:48:30;98717.06;;;11.68;60.16
15489;BME280;7846;48.830;9.116;2023-02-02T10:51:02;98722.78;;;11.54;59.97
15489;BME280;7846;48.830;9.116;2023-02-02T10:53:29;98728.19;;;11.43;60.05
15489;BME280;7846;48.830;9.116;2023-02-02T10:56:03;98708.13;;;11.98;58.91
15489;BME280;7846;48.830;9.116;2023-02-02T10:58:39;98720.53;;;11.49;59.04
15489;BME280;7846;48.830;9.116;2023-02-02T11:01:08;98711.91;;;11.67;59.13
15489;BME280;7846;48.830;9.116;2023-02-02T11:03:36;98712.56;;;11.98;59.08
15489;BME280;7846;48.830;9.116;2023-02-02T11:06:04;98717.44;;;11.83;58.75
15489;BME280;7846;48.830;9.116;2023-02-02T11:08:52;98694.56;;;11.64;59.50
15489;BME280;7846;48.830;9.116;2023-02-02T11:16:36;98693.13;;;11.99;58.93
15489;BME280;7846;48.830;9.116;2023-02-02T11:19:21;98692.69;;;12.31;57.57
15489;BME280;7846;48.830;9.116;2023-02-02T11:21:50;98696.91;;;12.24;57.77
15489;BME280;7846;48.830;9.116;2023-02-02T11:24:27;98686.19;;;12.53;57.45
15489;BME280;7846;48.830;9.116;2023-02-02T11:26:55;98691.38;;;12.45;57.98
15489;BME280;7846;48.830;9.116;2023-02-02T11:29:28;98706.88;;;12.30;57.98
15489;BME280;7846;48.830;9.116;2023-02-02T11:31:55;98691.94;;;12.21;57.77
15489;BME280;7846;48.830;9.116;2023-02-02T11:34:22;98693.50;;;12.04;59.16
15489;BME280;7846;48.830;9.116;2023-02-02T11:37:00;98707.81;;;12.01;58.66
15489;BME280;7846;48.830;9.116;2023-02-02T11:39:25;98692.41;;;11.97;58.28
15489;BME280;7846;48.830;9.116;2023-02-02T11:42:03;98698.06;;;12.11;58.78
15489;BME280;7846;48.830;9.116;2023-02-02T11:44:29;98711.78;;;11.68;58.65
15489;BME280;7846;48.830;9.116;2023-02-02T11:46:57;98701.03;;;11.99;58.91
15489;BME280;7846;48.830;9.116;2023-02-02T11:49:24;98700.41;;;12.15;58.85
15489;BME280;7846;48.830;9.116;2023-02-02T11:51:56;98699.31;;;12.17;58.98
15489;BME280;7846;48.830;9.116;2023-02-02T11:54:31;98692.19;;;12.27;58.96
15489;BME280;7846;48.830;9.116;2023-02-02T11:57:06;98662.84;;;12.03;58.73
15489;BME280;7846;48.830;9.116;2023-02-02T11:59:41;98683.69;;;11.96;58.75
15489;BME280;7846;48.830;9.116;2023-02-02T12:04:46;98682.47;;;11.81;59.21
15489;BME280;7846;48.830;9.116;2023-02-02T12:07:27;98705.25;;;11.62;59.63
15489;BME280;7846;48.830;9.116;2023-02-02T12:09:58;98692.41;;;12.06;60.04
15489;BME280;7846;48.830;9.116;2023-02-02T12:17:38;98704.00;;;11.67;62.00
15489;BME280;7846;48.830;9.116;2023-02-02T12:20:34;98692.28;;;11.32;61.87
15489;BME280;7846;48.830;9.116;2023-02-02T12:23:17;98693.72;;;11.73;61.89
15489;BME280;7846;48.830;9.116;2023-02-02T12:26:22;98692.69;;;11.37;63.01
15489;BME280;7846;48.830;9.116;2023-02-02T12:31:47;98708.38;;;11.09;62.95
15489;BME280;7846;48.830;9.116;2023-02-02T12:36:57;98701.84;;;11.04;63.27
15489;BME280;7846;48.830;9.116;2023-02-02T12:39:39;98693.41;;;11.10;63.87
15489;BME280;7846;48.830;9.116;2023-02-02T12:42:31;98702.25;;;10.99;63.60
15489;BME280;7846;48.830;9.116;2023-02-02T12:47:54;98690.22;;;11.06;63.84
15489;BME280;7846;48.830;9.116;2023-02-02T12:59:16;98710.59;;;10.95;64.13
15489;BME280;7846;48.830;9.116;2023-02-02T13:02:03;98697.41;;;11.14;64.11
15489;BME280;7846;48.830;9.116;2023-02-02T13:07:19;98703.09;;;11.09;64.21
15489;BME280;7846;48.830;9.116;2023-02-02T13:12:23;98706.25;;;10.94;64.32
15489;BME280;7846;48.830;9.116;2023-02-02T13:14:54;98710.44;;;10.86;64.35
15489;BME280;7846;48.830;9.116;2023-02-02T13:22:59;98702.13;;;11.01;64.32
15489;BME280;7846;48.830;9.116;2023-02-02T13:25:32;98692.16;;;11.24;63.73
15489;BME280;7846;48.830;9.116;2023-02-02T13:27:59;98695.19;;;11.00;63.22
15489;BME280;7846;48.830;9.116;2023-02-02T13:30:38;98706.56;;;11.29;63.76
15489;BME280;7846;48.830;9.116;2023-02-02T13:33:10;98710.31;;;11.46;62.88
15489;BME280;7846;48.830;9.116;2023-02-02T13:35:53;98699.03;;;11.54;62.54
15489;BME280;7846;48.830;9.116;2023-02-02T13:38:22;98690.91;;;11.28;62.56
15489;BME280;7846;48.830;9.116;2023-02-02T13:40:50;98693.88;;;11.72;62.55
15489;BME280;7846;48.830;9.116;2023-02-02T13:43:45;98691.16;;;11.15;63.30
15489;BME280;7846;48.830;9.116;2023-02-02T13:48:58;98719.03;;;11.47;63.01
15489;BME280;7846;48.830;9.116;2023-02-02T13:57:10;98720.53;;;11.59;61.91
15489;BME280;7846;48.830;9.116;2023-02-02T13:59:59;98722.59;;;11.84;61.29
15489;BME280;7846;48.830;9.116;2023-02-02T14:02:33;98722.91;;;11.52;61.75
15489;BME280;7846;48.830;9.116;2023-02-02T14:05:04;98732.81;;;12.07;60.87
15489;BME280;7846;48.830;9.116;2023-02-02T14:07:44;98720.53;;;11.69;61.33
15489;BME280;7846;48.830;9.116;2023-02-02T14:10:34;98733.41;;;11.91;60.44
15489;BME280;7846;48.830;9.116;2023-02-02T14:13:07;98718.97;;;11.85;60.80
15489;BME280;7846;48.830;9.116;2023-02-02T14:15:54;98726.63;;;11.59;61.09
15489;BME280;7846;48.830;9.116;2023-02-02T14:18:50;98733.31;;;11.44;61.21
15489;BME280;7846;48.830;9.116;2023-02-02T14:21:59;98727.72;;;11.86;61.13
15489;BME280;7846;48.830;9.116;2023-02-02T14:26:53;98717.75;;;11.60;60.37
15489;BME280;7846;48.830;9.116;2023-02-02T14:32:00;98737.31;;;11.68;60.58
15489;BME280;7846;48.830;9.116;2023-02-02T14:34:31;98738.41;;;11.94;59.29
15489;BME280;7846;48.830;9.116;2023-02-02T14:39:31;98743.47;;;12.15;59.29
15489;BME280;7846;48.830;9.116;2023-02-02T14:42:19;98769.09;;;11.85;59.08
15489;BME280;7846;48.830;9.116;2023-02-02T14:47:51;98752.56;;;11.74;59.33
15489;BME280;7846;48.830;9.116;2023-02-02T14:50:23;98751.63;;;11.46;59.91
15489;BME280;7846;48.830;9.116;2023-02-02T14:53:04;98764.69;;;11.57;59.36
15489;BME280;7846;48.830;9.116;2023-02-02T14:55:34;98748.28;;;11.63;58.70
15489;BME280;7846;48.830;9.116;2023-02-02T14:58:03;98762.56;;;11.70;59.53
15489;BME280;7846;48.830;9.116;2023-02-02T15:00:32;98774.78;;;11.71;58.84
15489;BME280;7846;48.830;9.116;2023-02-02T15:06:12;98768.81;;;11.89;58.67
15489;BME280;7846;48.830;9.116;2023-02-02T15:08:38;98747.88;;;11.58;58.09